sensor_id;sensor_type;location;lat;lon;timestamp;pressure;altitude;pressure_sealevel;temperature;humidity
13952;BME280;39535;52.192;9.886;2024-03-02T00:00:11;99851.25;;;11.17;69.62
13952;BME280;39535;52.192;9.886;2024-03-02T00:02:39;99847.75;;;11.18;69.62
13952;BME280;39535;52.192;9.886;2024-03-02T00:05:06;99864.31;;;11.17;69.58
13952;BME280;39535;52.192;9.886;2024-03-02T00:07:33;99851.34;;;11.14;69.86
13952;BME280;39535;52.192;9.886;2024-03-02T00:10:01;99860.34;;;11.04;70.00
13952;BME280;39535;52.192;9.886;2024-03-02T00:12:33;99846.25;;;11.09;70.32
13952;BME280;39535;52.192;9.886;2024-03-02T00:14:59;99837.38;;;11.15;70.02
13952;BME280;39535;52.192;9.886;2024-03-02T00:17:28;99841.25;;;11.02;70.48
13952;BME280;39535;52.192;9.886;2024-03-02T00:19:55;99836.72;;;11.08;69.96
13952;BME280;39535;52.192;9.886;2024-03-02T00:22:21;99831.63;;;11.04;70.28
13952;BME280;39535;52.192;9.886;2024-03-02T00:24:48;99830.63;;;11.08;70.48
13952;BME280;39535;52.192;9.886;2024-03-02T00:27:17;99829.97;;;11.01;70.43
13952;BME280;39535;52.192;9.886;2024-03-02T00:29:45;99822.94;;;11.03;70.95
13952;BME280;39535;52.192;9.886;2024-03-02T00:32:13;99814.13;;;11.06;70.95
13952;BME280;39535;52.192;9.886;2024-03-02T00:34:42;99811.06;;;10.93;70.81
13952;BME280;39535;52.192;9.886;2024-03-02T00:37:09;99807.31;;;11.02;71.18
13952;BME280;39535;52.192;9.886;2024-03-02T00:39:36;99807.22;;;11.05;70.89
13952;BME280;39535;52.192;9.886;2024-03-02T00:42:02;99803.88;;;11.00;71.27
13952;BME280;39535;52.192;9.886;2024-03-02T00:44:33;99801.16;;;11.04;71.78
13952;BME280;39535;52.192;9.886;2024-03-02T00:47:01;99796.81;;;11.03;71.16
13952;BME280;39535;52.192;9.886;2024-03-02T00:49:28;99788.19;;;11.01;71.58
13952;BME280;39535;52.192;9.886;2024-03-02T00:51:54;99785.59;;;11.00;71.98
13952;BME280;39535;52.192;9.886;2024-03-02T00:54:22;99780.50;;;10.97;72.05
13952;BME280;39535;52.192;9.886;2024-03-02T00:56:49;99777.94;;;10.95;72.27
13952;BME280;39535;52.192;9.886;2024-03-02T00:59:16;99775.31;;;10.95;72.46
13952;BME280;39535;52.192;9.886;2024-03-02T01:01:44;99757.84;;;10.97;72.77
13952;BME280;39535;52.192;9.886;2024-03-02T01:04:11;99749.28;;;10.92;72.82
13952;BME280;39535;52.192;9.886;2024-03-02T01:06:39;99742.38;;;10.91;73.11
13952;BME280;39535;52.192;9.886;2024-03-02T01:09:06;99739.97;;;10.85;73.33
13952;BME280;39535;52.192;9.886;2024-03-02T01:11:32;99741.19;;;10.73;72.91
13952;BME280;39535;52.192;9.886;2024-03-02T01:13:58;99743.00;;;10.71;73.24
13952;BME280;39535;52.192;9.886;2024-03-02T01:16:25;99740.38;;;10.71;73.47
13952;BME280;39535;52.192;9.886;2024-03-02T01:18:52;99738.63;;;10.71;73.92
13952;BME280;39535;52.192;9.886;2024-03-02T01:21:18;99728.28;;;10.68;73.81
13952;BME280;39535;52.192;9.886;2024-03-02T01:23:45;99722.94;;;10.71;73.42
13952;BME280;39535;52.192;9.886;2024-03-02T01:26:11;99725.75;;;10.65;73.93
13952;BME280;39535;52.192;9.886;2024-03-02T01:28:37;99723.06;;;10.68;73.87
13952;BME280;39535;52.192;9.886;2024-03-02T01:31:04;99716.97;;;10.68;73.90
13952;BME280;39535;52.192;9.886;2024-03-02T01:33:30;99722.31;;;10.65;73.62
13952;BME280;39535;52.192;9.886;2024-03-02T01:35:57;99712.06;;;10.59;74.57
13952;BME280;39535;52.192;9.886;2024-03-02T01:38:23;99706.66;;;10.65;74.59
13952;BME280;39535;52.192;9.886;2024-03-02T01:40:50;99709.63;;;10.52;74.18
13952;BME280;39535;52.192;9.886;2024-03-02T01:43:16;99706.09;;;10.53;73.78
13952;BME280;39535;52.192;9.886;2024-03-02T01:45:43;99704.28;;;10.57;74.32
13952;BME280;39535;52.192;9.886;2024-03-02T01:48:10;99705.31;;;10.51;73.69
13952;BME280;39535;52.192;9.886;2024-03-02T01:50:36;99719.97;;;10.56;73.98
13952;BME280;39535;52.192;9.886;2024-03-02T01:53:04;99729.38;;;10.61;73.08
13952;BME280;39535;52.192;9.886;2024-03-02T01:55:30;99726.78;;;10.60;73.24
13952;BME280;39535;52.192;9.886;2024-03-02T01:57:58;99717.03;;;10.66;73.83
13952;BME280;39535;52.192;9.886;2024-03-02T02:00:24;99703.06;;;10.67;73.80
13952;BME280;39535;52.192;9.886;2024-03-02T02:02:51;99708.22;;;10.70;73.62
13952;BME280;39535;52.192;9.886;2024-03-02T02:05:18;99703.78;;;10.72;73.97
13952;BME280;39535;52.192;9.886;2024-03-02T02:07:45;99698.50;;;10.74;73.38
13952;BME280;39535;52.192;9.886;2024-03-02T02:10:13;99701.13;;;10.74;73.84
13952;BME280;39535;52.192;9.886;2024-03-02T02:12:39;99699.38;;;10.75;74.08
13952;BME280;39535;52.192;9.886;2024-03-02T02:15:21;99686.38;;;10.73;74.38
13952;BME280;39535;52.192;9.886;2024-03-02T02:17:48;99681.38;;;10.65;74.63
13952;BME280;39535;52.192;9.886;2024-03-02T02:20:14;99676.69;;;10.48;74.64
13952;BME280;39535;52.192;9.886;2024-03-02T02:22:53;99676.13;;;10.39;75.06
13952;BME280;39535;52.192;9.886;2024-03-02T02:25:19;99659.53;;;10.41;74.95
13952;BME280;39535;52.192;9.886;2024-03-02T02:27:46;99650.69;;;10.45;75.14
13952;BME280;39535;52.192;9.886;2024-03-02T02:30:13;99648.91;;;10.47;75.00
13952;BME280;39535;52.192;9.886;2024-03-02T02:32:39;99644.44;;;10.51;75.22
13952;BME280;39535;52.192;9.886;2024-03-02T02:35:06;99643.59;;;10.50;74.86
13952;BME280;39535;52.192;9.886;2024-03-02T02:37:33;99647.91;;;10.51;75.08
13952;BME280;39535;52.192;9.886;2024-03-02T02:40:01;99646.25;;;10.49;74.88
13952;BME280;39535;52.192;9.886;2024-03-02T02:42:30;99648.94;;;10.46;74.75
13952;BME280;39535;52.192;9.886;2024-03-02T02:44:56;99653.38;;;10.42;74.78
13952;BME280;39535;52.192;9.886;2024-03-02T02:47:22;99646.44;;;10.43;75.03
13952;BME280;39535;52.192;9.886;2024-03-02T02:49:49;99643.88;;;10.41;75.00
13952;BME280;39535;52.192;9.886;2024-03-02T02:52:15;99639.63;;;10.39;75.09
13952;BME280;39535;52.192;9.886;2024-03-02T02:54:41;99632.63;;;10.39;75.42
13952;BME280;39535;52.192;9.886;2024-03-02T02:57:09;99639.63;;;10.39;75.39
13952;BME280;39535;52.192;9.886;2024-03-02T02:59:35;99634.41;;;10.39;75.48
13952;BME280;39535;52.192;9.886;2024-03-02T03:02:02;99627.78;;;10.27;75.54
13952;BME280;39535;52.192;9.886;2024-03-02T03:04:28;99616.38;;;10.29;75.66
13952;BME280;39535;52.192;9.886;2024-03-02T03:06:54;99613.78;;;10.29;75.67
13952;BME280;39535;52.192;9.886;2024-03-02T03:09:21;99612.44;;;10.16;75.46
13952;BME280;39535;52.192;9.886;2024-03-02T03:11:47;99600.91;;;10.23;75.87
13952;BME280;39535;52.192;9.886;2024-03-02T03:14:15;99607.81;;;10.24;75.88
13952;BME280;39535;52.192;9.886;2024-03-02T03:16:41;99608.94;;;10.17;75.72
13952;BME280;39535;52.192;9.886;2024-03-02T03:19:08;99614.44;;;10.08;75.25
13952;BME280;39535;52.192;9.886;2024-03-02T03:21:35;99602.00;;;10.16;75.73
13952;BME280;39535;52.192;9.886;2024-03-02T03:24:01;99607.91;;;10.23;75.50
13952;BME280;39535;52.192;9.886;2024-03-02T03:26:28;99610.44;;;10.24;75.40
13952;BME280;39535;52.192;9.886;2024-03-02T03:28:54;99607.91;;;10.23;75.56
13952;BME280;39535;52.192;9.886;2024-03-02T03:31:22;99610.44;;;10.24;75.48
13952;BME280;39535;52.192;9.886;2024-03-02T03:33:48;99611.44;;;10.20;75.38
13952;BME280;39535;52.192;9.886;2024-03-02T03:36:15;99603.53;;;10.23;75.36
13952;BME280;39535;52.192;9.886;2024-03-02T03:38:41;99611.44;;;10.20;75.00
13952;BME280;39535;52.192;9.886;2024-03-02T03:41:07;99625.19;;;9.97;75.24
13952;BME280;39535;52.192;9.886;2024-03-02T03:43:34;99622.09;;;9.83;75.48
13952;BME280;39535;52.192;9.886;2024-03-02T03:46:01;99603.88;;;9.83;75.91
13952;BME280;39535;52.192;9.886;2024-03-02T03:48:29;99597.00;;;9.80;76.13
13952;BME280;39535;52.192;9.886;2024-03-02T03:50:56;99591.56;;;9.58;76.80
13952;BME280;39535;52.192;9.886;2024-03-02T03:53:23;99573.53;;;9.50;76.98
13952;BME280;39535;52.192;9.886;2024-03-02T03:55:49;99563.19;;;9.47;76.84
13952;BME280;39535;52.192;9.886;2024-03-02T03:58:15;99556.94;;;9.53;77.06
13952;BME280;39535;52.192;9.886;2024-03-02T04:00:44;99557.16;;;9.45;77.29
13952;BME280;39535;52.192;9.886;2024-03-02T04:03:10;99558.09;;;9.44;77.50
13952;BME280;39535;52.192;9.886;2024-03-02T04:05:38;99550.41;;;9.40;77.05
13952;BME280;39535;52.192;9.886;2024-03-02T04:08:04;99547.00;;;9.38;77.22
13952;BME280;39535;52.192;9.886;2024-03-02T04:10:31;99546.56;;;9.22;77.36
13952;BME280;39535;52.192;9.886;2024-03-02T04:12:57;99550.22;;;9.14;77.30
13952;BME280;39535;52.192;9.886;2024-03-02T04:15:23;99533.97;;;9.06;78.11
13952;BME280;39535;52.192;9.886;2024-03-02T04:17:50;99530.03;;;9.23;77.67
13952;BME280;39535;52.192;9.886;2024-03-02T04:20:16;99532.50;;;9.27;77.46
13952;BME280;39535;52.192;9.886;2024-03-02T04:22:44;99530.22;;;9.17;78.01
13952;BME280;39535;52.192;9.886;2024-03-02T04:25:10;99519.47;;;9.27;78.31
13952;BME280;39535;52.192;9.886;2024-03-02T04:27:35;99522.06;;;9.29;77.84
13952;BME280;39535;52.192;9.886;2024-03-02T04:30:03;99523.66;;;9.33;77.93
13952;BME280;39535;52.192;9.886;2024-03-02T04:32:30;99529.06;;;9.27;77.67
13952;BME280;39535;52.192;9.886;2024-03-02T04:34:56;99524.66;;;9.29;77.84
13952;BME280;39535;52.192;9.886;2024-03-02T04:37:22;99517.03;;;9.23;78.24
13952;BME280;39535;52.192;9.886;2024-03-02T04:39:50;99512.78;;;9.19;78.64
13952;BME280;39535;52.192;9.886;2024-03-02T04:42:16;99493.75;;;9.17;79.20
13952;BME280;39535;52.192;9.886;2024-03-02T04:44:43;99482.31;;;9.22;79.05
13952;BME280;39535;52.192;9.886;2024-03-02T04:47:09;99486.59;;;9.25;79.03
13952;BME280;39535;52.192;9.886;2024-03-02T04:49:35;99481.28;;;9.28;79.13
13952;BME280;39535;52.192;9.886;2024-03-02T04:52:02;99485.72;;;9.24;78.84
13952;BME280;39535;52.192;9.886;2024-03-02T04:54:29;99492.19;;;9.11;78.54
13952;BME280;39535;52.192;9.886;2024-03-02T04:56:56;99491.75;;;8.95;79.29
13952;BME280;39535;52.192;9.886;2024-03-02T04:59:23;99473.66;;;9.22;78.56
13952;BME280;39535;52.192;9.886;2024-03-02T05:01:49;99495.81;;;9.35;78.45
13952;BME280;39535;52.192;9.886;2024-03-02T05:04:16;99502.75;;;9.36;77.97
13952;BME280;39535;52.192;9.886;2024-03-02T05:06:43;99515.56;;;9.44;77.79
13952;BME280;39535;52.192;9.886;2024-03-02T05:09:15;99528.63;;;9.42;77.33
13952;BME280;39535;52.192;9.886;2024-03-02T05:11:42;99533.28;;;9.31;77.29
13952;BME280;39535;52.192;9.886;2024-03-02T05:14:27;99531.63;;;9.28;77.59
13952;BME280;39535;52.192;9.886;2024-03-02T05:16:54;99542.06;;;9.27;77.22
13952;BME280;39535;52.192;9.886;2024-03-02T05:19:20;99532.56;;;9.26;77.70
13952;BME280;39535;52.192;9.886;2024-03-02T05:21:46;99534.50;;;9.18;77.84
13952;BME280;39535;52.192;9.886;2024-03-02T05:24:13;99526.06;;;9.09;78.60
13952;BME280;39535;52.192;9.886;2024-03-02T05:26:40;99519.38;;;9.01;78.99
13952;BME280;39535;52.192;9.886;2024-03-02T05:29:06;99510.06;;;8.92;79.35
13952;BME280;39535;52.192;9.886;2024-03-02T05:31:34;99493.63;;;8.90;80.19
13952;BME280;39535;52.192;9.886;2024-03-02T05:34:00;99476.13;;;8.95;79.83
13952;BME280;39535;52.192;9.886;2024-03-02T05:36:26;99478.19;;;8.84;80.33
13952;BME280;39535;52.192;9.886;2024-03-02T05:38:53;99449.47;;;8.87;81.21
13952;BME280;39535;52.192;9.886;2024-03-02T05:41:19;99436.81;;;9.06;80.74
13952;BME280;39535;52.192;9.886;2024-03-02T05:43:46;99437.47;;;9.12;80.28
13952;BME280;39535;52.192;9.886;2024-03-02T05:46:12;99468.09;;;9.04;79.20
13952;BME280;39535;52.192;9.886;2024-03-02T05:48:40;99481.09;;;9.04;79.03
13952;BME280;39535;52.192;9.886;2024-03-02T05:51:06;99480.19;;;9.05;79.51
13952;BME280;39535;52.192;9.886;2024-03-02T05:53:32;99494.66;;;8.84;78.97
13952;BME280;39535;52.192;9.886;2024-03-02T05:55:59;99493.84;;;8.82;79.69
13952;BME280;39535;52.192;9.886;2024-03-02T05:58:25;99478.19;;;8.84;80.84
13952;BME280;39535;52.192;9.886;2024-03-02T06:01:08;99464.91;;;8.93;80.15
13952;BME280;39535;52.192;9.886;2024-03-02T06:03:34;99468.38;;;8.93;79.88
13952;BME280;39535;52.192;9.886;2024-03-02T06:06:02;99479.44;;;8.70;80.28
13952;BME280;39535;52.192;9.886;2024-03-02T06:08:29;99456.38;;;8.57;81.79
13952;BME280;39535;52.192;9.886;2024-03-02T06:10:55;99441.81;;;8.49;82.18
13952;BME280;39535;52.192;9.886;2024-03-02T06:13:21;99428.66;;;8.55;82.61
13952;BME280;39535;52.192;9.886;2024-03-02T06:15:48;99403.84;;;8.42;82.96
13952;BME280;39535;52.192;9.886;2024-03-02T06:18:14;99400.75;;;8.62;82.95
13952;BME280;39535;52.192;9.886;2024-03-02T06:20:41;99403.28;;;8.64;82.64
13952;BME280;39535;52.192;9.886;2024-03-02T06:23:09;99397.19;;;8.65;82.99
13952;BME280;39535;52.192;9.886;2024-03-02T06:25:35;99405.63;;;8.73;83.22
13952;BME280;39535;52.192;9.886;2024-03-02T06:28:02;99410.63;;;8.81;82.53
13952;BME280;39535;52.192;9.886;2024-03-02T06:30:29;99411.69;;;8.73;82.86
13952;BME280;39535;52.192;9.886;2024-03-02T06:32:55;99410.66;;;8.79;82.22
13952;BME280;39535;52.192;9.886;2024-03-02T06:35:22;99413.28;;;8.78;83.18
13952;BME280;39535;52.192;9.886;2024-03-02T06:37:48;99407.19;;;8.80;83.31
13952;BME280;39535;52.192;9.886;2024-03-02T06:40:16;99410.78;;;8.74;83.18
13952;BME280;39535;52.192;9.886;2024-03-02T06:42:42;99406.25;;;8.81;83.35
13952;BME280;39535;52.192;9.886;2024-03-02T06:45:09;99410.34;;;8.90;82.71
13952;BME280;39535;52.192;9.886;2024-03-02T06:47:35;99431.41;;;8.82;82.60
13952;BME280;39535;52.192;9.886;2024-03-02T06:50:01;99425.88;;;8.93;82.85
13952;BME280;39535;52.192;9.886;2024-03-02T06:52:28;99424.72;;;9.03;82.43
13952;BME280;39535;52.192;9.886;2024-03-02T06:54:54;99440.63;;;9.24;81.56
13952;BME280;39535;52.192;9.886;2024-03-02T06:57:22;99452.75;;;9.23;80.96
13952;BME280;39535;52.192;9.886;2024-03-02T06:59:49;99460.34;;;9.31;81.29
13952;BME280;39535;52.192;9.886;2024-03-02T07:02:19;99468.06;;;9.36;81.18
13952;BME280;39535;52.192;9.886;2024-03-02T07:04:45;99465.31;;;9.40;81.08
13952;BME280;39535;52.192;9.886;2024-03-02T07:07:12;99467.00;;;9.41;81.44
13952;BME280;39535;52.192;9.886;2024-03-02T07:09:38;99455.06;;;9.34;82.04
13952;BME280;39535;52.192;9.886;2024-03-02T07:12:05;99455.84;;;9.38;81.80
13952;BME280;39535;52.192;9.886;2024-03-02T07:14:32;99453.88;;;9.44;81.92
13952;BME280;39535;52.192;9.886;2024-03-02T07:17:16;99450.56;;;9.39;82.30
13952;BME280;39535;52.192;9.886;2024-03-02T07:19:43;99458.38;;;9.39;82.47
13952;BME280;39535;52.192;9.886;2024-03-02T07:22:09;99462.91;;;9.32;82.04
13952;BME280;39535;52.192;9.886;2024-03-02T07:24:39;99467.66;;;9.49;81.86
13952;BME280;39535;52.192;9.886;2024-03-02T07:27:06;99480.78;;;9.45;81.34
13952;BME280;39535;52.192;9.886;2024-03-02T07:29:34;99488.41;;;9.51;81.30
13952;BME280;39535;52.192;9.886;2024-03-02T07:32:00;99504.03;;;9.51;80.92
13952;BME280;39535;52.192;9.886;2024-03-02T07:34:27;99515.75;;;9.67;80.28
13952;BME280;39535;52.192;9.886;2024-03-02T07:36:53;99528.56;;;9.73;80.01
13952;BME280;39535;52.192;9.886;2024-03-02T07:39:19;99537.97;;;9.79;80.30
13952;BME280;39535;52.192;9.886;2024-03-02T07:41:46;99543.84;;;9.86;79.75
13952;BME280;39535;52.192;9.886;2024-03-02T07:44:13;99557.69;;;9.88;79.76
13952;BME280;39535;52.192;9.886;2024-03-02T07:46:41;99569.16;;;9.81;79.95
13952;BME280;39535;52.192;9.886;2024-03-02T07:49:08;99579.81;;;9.73;79.49
13952;BME280;39535;52.192;9.886;2024-03-02T07:51:34;99579.53;;;9.84;79.94
13952;BME280;39535;52.192;9.886;2024-03-02T07:54:01;99586.13;;;9.96;79.74
13952;BME280;39535;52.192;9.886;2024-03-02T07:56:27;99591.75;;;9.82;80.26
13952;BME280;39535;52.192;9.886;2024-03-02T07:58:54;99578.81;;;9.77;80.08
13952;BME280;39535;52.192;9.886;2024-03-02T08:01:22;99564.84;;;9.81;80.66
13952;BME280;39535;52.192;9.886;2024-03-02T08:03:50;99554.41;;;9.81;80.82
13952;BME280;39535;52.192;9.886;2024-03-02T08:06:17;99559.31;;;9.90;80.83
13952;BME280;39535;52.192;9.886;2024-03-02T08:08:46;99561.25;;;9.85;80.62
13952;BME280;39535;52.192;9.886;2024-03-02T08:11:13;99567.91;;;9.94;80.68
13952;BME280;39535;52.192;9.886;2024-03-02T08:13:39;99563.19;;;10.07;80.41
13952;BME280;39535;52.192;9.886;2024-03-02T08:16:05;99571.75;;;10.10;80.40
13952;BME280;39535;52.192;9.886;2024-03-02T08:18:34;99575.50;;;10.02;80.68
13952;BME280;39535;52.192;9.886;2024-03-02T08:21:02;99558.03;;;10.05;81.03
13952;BME280;39535;52.192;9.886;2024-03-02T08:23:29;99456.00;;;10.43;86.27
13952;BME280;39535;52.192;9.886;2024-03-02T08:25:56;99387.16;;;10.70;88.52
13952;BME280;39535;52.192;9.886;2024-03-02T08:28:22;99386.44;;;10.90;86.35
13952;BME280;39535;52.192;9.886;2024-03-02T08:30:49;99419.06;;;11.02;84.21
13952;BME280;39535;52.192;9.886;2024-03-02T08:33:15;99477.97;;;11.09;80.24
13952;BME280;39535;52.192;9.886;2024-03-02T08:35:41;99549.28;;;11.11;80.41
13952;BME280;39535;52.192;9.886;2024-03-02T08:38:09;99567.56;;;11.11;81.32
13952;BME280;39535;52.192;9.886;2024-03-02T08:40:36;99540.81;;;11.30;81.03
13952;BME280;39535;52.192;9.886;2024-03-02T08:43:02;99559.63;;;11.40;81.23
13952;BME280;39535;52.192;9.886;2024-03-02T08:45:29;99510.69;;;11.67;83.61
13952;BME280;39535;52.192;9.886;2024-03-02T08:47:55;99524.81;;;11.85;81.23
13952;BME280;39535;52.192;9.886;2024-03-02T08:50:21;99650.25;;;11.63;75.17
13952;BME280;39535;52.192;9.886;2024-03-02T08:52:48;99743.44;;;11.39;73.25
13952;BME280;39535;52.192;9.886;2024-03-02T08:55:15;99733.28;;;11.56;73.86
13952;BME280;39535;52.192;9.886;2024-03-02T08:57:42;99755.13;;;11.79;75.66
13952;BME280;39535;52.192;9.886;2024-03-02T09:00:09;99767.75;;;11.92;73.48
13952;BME280;39535;52.192;9.886;2024-03-02T09:02:36;99820.13;;;11.91;71.60
13952;BME280;39535;52.192;9.886;2024-03-02T09:05:02;99875.38;;;11.80;70.87
13952;BME280;39535;52.192;9.886;2024-03-02T09:07:29;99894.53;;;11.81;70.49
13952;BME280;39535;52.192;9.886;2024-03-02T09:09:55;99918.06;;;11.81;70.57
13952;BME280;39535;52.192;9.886;2024-03-02T09:12:23;99937.91;;;11.60;69.57
13952;BME280;39535;52.192;9.886;2024-03-02T09:14:49;99945.44;;;11.69;70.46
13952;BME280;39535;52.192;9.886;2024-03-02T09:17:15;99940.75;;;11.80;70.24
13952;BME280;39535;52.192;9.886;2024-03-02T09:19:42;99960.06;;;11.76;70.05
13952;BME280;39535;52.192;9.886;2024-03-02T09:22:08;99966.44;;;11.67;68.45
13952;BME280;39535;52.192;9.886;2024-03-02T09:24:34;99979.00;;;11.83;68.93
13952;BME280;39535;52.192;9.886;2024-03-02T09:27:01;99971.94;;;11.86;69.55
13952;BME280;39535;52.192;9.886;2024-03-02T09:29:29;99995.53;;;11.55;68.13
13952;BME280;39535;52.192;9.886;2024-03-02T09:31:55;99998.66;;;11.68;68.40
13952;BME280;39535;52.192;9.886;2024-03-02T09:34:22;100001.88;;;11.76;69.18
13952;BME280;39535;52.192;9.886;2024-03-02T09:36:48;100008.78;;;11.79;68.61
13952;BME280;39535;52.192;9.886;2024-03-02T09:39:16;100020.41;;;11.68;67.64
13952;BME280;39535;52.192;9.886;2024-03-02T09:41:43;100030.97;;;11.65;66.91
13952;BME280;39535;52.192;9.886;2024-03-02T09:44:10;100034.72;;;11.85;67.76
13952;BME280;39535;52.192;9.886;2024-03-02T09:46:37;100038.81;;;11.95;68.48
13952;BME280;39535;52.192;9.886;2024-03-02T09:49:04;100031.72;;;11.99;67.97
13952;BME280;39535;52.192;9.886;2024-03-02T09:51:31;100050.03;;;11.99;66.66
13952;BME280;39535;52.192;9.886;2024-03-02T09:53:57;100083.22;;;11.97;65.64
13952;BME280;39535;52.192;9.886;2024-03-02T09:56:23;100073.31;;;12.08;66.64
13952;BME280;39535;52.192;9.886;2024-03-02T09:58:50;100101.66;;;11.94;65.20
13952;BME280;39535;52.192;9.886;2024-03-02T10:01:17;100097.81;;;12.05;66.61
13952;BME280;39535;52.192;9.886;2024-03-02T10:03:45;100120.16;;;11.86;64.92
13952;BME280;39535;52.192;9.886;2024-03-02T10:06:22;100105.34;;;12.15;65.97
13952;BME280;39535;52.192;9.886;2024-03-02T10:08:48;100108.13;;;12.10;65.35
13952;BME280;39535;52.192;9.886;2024-03-02T10:11:28;100108.50;;;12.26;64.98
13952;BME280;39535;52.192;9.886;2024-03-02T10:14:04;100126.81;;;12.26;64.89
13952;BME280;39535;52.192;9.886;2024-03-02T10:16:33;100129.63;;;12.48;65.05
13952;BME280;39535;52.192;9.886;2024-03-02T10:19:15;100151.25;;;12.25;63.40
13952;BME280;39535;52.192;9.886;2024-03-02T10:21:41;100176.06;;;12.13;64.20
13952;BME280;39535;52.192;9.886;2024-03-02T10:24:08;100182.78;;;12.22;64.17
13952;BME280;39535;52.192;9.886;2024-03-02T10:26:34;100190.38;;;12.31;63.74
13952;BME280;39535;52.192;9.886;2024-03-02T10:29:00;100173.56;;;12.38;64.88
13952;BME280;39535;52.192;9.886;2024-03-02T10:31:27;100163.13;;;12.37;63.54
13952;BME280;39535;52.192;9.886;2024-03-02T10:33:54;100187.31;;;12.45;63.25
13952;BME280;39535;52.192;9.886;2024-03-02T10:36:22;100193.38;;;12.47;64.03
13952;BME280;39535;52.192;9.886;2024-03-02T10:38:51;100173.53;;;12.66;64.56
13952;BME280;39535;52.192;9.886;2024-03-02T10:41:23;100170.03;;;12.67;64.15
13952;BME280;39535;52.192;9.886;2024-03-02T10:43:51;100171.91;;;12.62;63.75
13952;BME280;39535;52.192;9.886;2024-03-02T10:46:20;100179.50;;;12.71;63.66
13952;BME280;39535;52.192;9.886;2024-03-02T10:48:48;100181.03;;;12.79;62.61
13952;BME280;39535;52.192;9.886;2024-03-02T10:51:15;100187.88;;;12.83;62.07
13952;BME280;39535;52.192;9.886;2024-03-02T10:53:43;100210.66;;;12.81;62.87
13952;BME280;39535;52.192;9.886;2024-03-02T10:56:10;100238.16;;;12.66;60.84
13952;BME280;39535;52.192;9.886;2024-03-02T10:58:41;100239.34;;;12.84;61.40
13952;BME280;39535;52.192;9.886;2024-03-02T11:01:11;100243.44;;;12.93;62.47
13952;BME280;39535;52.192;9.886;2024-03-02T11:03:39;100228.47;;;12.96;61.89
13952;BME280;39535;52.192;9.886;2024-03-02T11:06:08;100248.53;;;12.97;60.67
13952;BME280;39535;52.192;9.886;2024-03-02T11:08:38;100264.88;;;13.05;60.41
13952;BME280;39535;52.192;9.886;2024-03-02T11:11:07;100265.28;;;13.20;60.59
13952;BME280;39535;52.192;9.886;2024-03-02T11:13:42;100302.41;;;12.78;58.90
13952;BME280;39535;52.192;9.886;2024-03-02T11:16:24;100305.38;;;12.95;59.97
13952;BME280;39535;52.192;9.886;2024-03-02T11:18:55;100286.16;;;13.23;61.21
13952;BME280;39535;52.192;9.886;2024-03-02T11:21:24;100276.06;;;13.39;60.63
13952;BME280;39535;52.192;9.886;2024-03-02T11:23:51;100281.09;;;13.45;59.77
13952;BME280;39535;52.192;9.886;2024-03-02T11:26:19;100284.22;;;13.56;59.96
13952;BME280;39535;52.192;9.886;2024-03-02T11:28:46;100317.03;;;13.41;57.75
13952;BME280;39535;52.192;9.886;2024-03-02T11:31:12;100328.56;;;13.64;58.92
13952;BME280;39535;52.192;9.886;2024-03-02T11:33:39;100310.56;;;13.78;59.90
13952;BME280;39535;52.192;9.886;2024-03-02T11:36:06;100300.41;;;13.94;58.98
13952;BME280;39535;52.192;9.886;2024-03-02T11:38:34;100300.50;;;14.16;58.77
13952;BME280;39535;52.192;9.886;2024-03-02T11:41:01;100317.78;;;14.22;58.20
13952;BME280;39535;52.192;9.886;2024-03-02T11:43:29;100325.78;;;14.19;57.20
13952;BME280;39535;52.192;9.886;2024-03-02T11:45:57;100361.72;;;14.17;56.36
13952;BME280;39535;52.192;9.886;2024-03-02T11:48:24;100372.66;;;14.29;57.11
13952;BME280;39535;52.192;9.886;2024-03-02T11:50:52;100363.50;;;14.16;56.95
13952;BME280;39535;52.192;9.886;2024-03-02T11:53:19;100359.59;;;14.28;57.88
13952;BME280;39535;52.192;9.886;2024-03-02T11:55:46;100367.25;;;14.34;57.52
13952;BME280;39535;52.192;9.886;2024-03-02T11:58:14;100363.00;;;14.30;56.33
13952;BME280;39535;52.192;9.886;2024-03-02T12:00:42;100367.25;;;14.34;57.53
13952;BME280;39535;52.192;9.886;2024-03-02T12:03:10;100371.19;;;14.21;55.83
13952;BME280;39535;52.192;9.886;2024-03-02T12:05:39;100389.31;;;14.28;56.54
13952;BME280;39535;52.192;9.886;2024-03-02T12:08:06;100383.97;;;14.32;56.40
13952;BME280;39535;52.192;9.886;2024-03-02T12:10:33;100380.41;;;14.33;56.97
13952;BME280;39535;52.192;9.886;2024-03-02T12:13:01;100372.31;;;14.39;57.71
13952;BME280;39535;52.192;9.886;2024-03-02T12:15:29;100350.50;;;14.37;56.08
13952;BME280;39535;52.192;9.886;2024-03-02T12:17:59;100370.34;;;14.45;57.05
13952;BME280;39535;52.192;9.886;2024-03-02T12:20:27;100367.00;;;14.40;56.59
13952;BME280;39535;52.192;9.886;2024-03-02T12:22:55;100358.59;;;14.56;56.50
13952;BME280;39535;52.192;9.886;2024-03-02T12:25:23;100336.66;;;14.80;57.45
13952;BME280;39535;52.192;9.886;2024-03-02T12:27:52;100337.09;;;15.15;55.51
13952;BME280;39535;52.192;9.886;2024-03-02T12:30:19;100346.50;;;15.85;54.80
13952;BME280;39535;52.192;9.886;2024-03-02T12:32:46;100395.56;;;16.29;53.02
13952;BME280;39535;52.192;9.886;2024-03-02T12:35:14;100443.22;;;16.84;51.41
13952;BME280;39535;52.192;9.886;2024-03-02T12:37:44;100503.22;;;17.38;50.30
13952;BME280;39535;52.192;9.886;2024-03-02T12:40:11;100539.63;;;17.69;49.77
13952;BME280;39535;52.192;9.886;2024-03-02T12:42:38;100606.09;;;17.98;47.44
13952;BME280;39535;52.192;9.886;2024-03-02T12:45:05;100631.03;;;18.65;47.50
13952;BME280;39535;52.192;9.886;2024-03-02T12:47:33;100686.28;;;19.08;45.45
13952;BME280;39535;52.192;9.886;2024-03-02T12:49:59;100737.72;;;19.37;45.37
13952;BME280;39535;52.192;9.886;2024-03-02T12:52:27;100774.63;;;19.57;44.76
13952;BME280;39535;52.192;9.886;2024-03-02T12:54:53;100787.19;;;19.89;44.17
13952;BME280;39535;52.192;9.886;2024-03-02T12:57:25;100810.81;;;20.27;43.50
13952;BME280;39535;52.192;9.886;2024-03-02T12:59:51;100845.00;;;20.31;43.01